createdAt,value
2022-09-16T00:00:23.955Z,73.00
2022-09-16T00:02:15.012Z,72.00
2022-09-16T00:04:07.118Z,72.10
2022-09-16T00:05:57.738Z,70.60
2022-09-16T00:07:48.242Z,70.60
2022-09-16T00:09:38.988Z,70.60
2022-09-16T00:11:31.865Z,70.60
2022-09-16T00:13:22.404Z,70.80
2022-09-16T00:15:12.755Z,70.70
2022-09-16T00:17:03.376Z,70.60
2022-09-16T00:18:54.242Z,70.50
2022-09-16T00:20:47.980Z,70.90
2022-09-16T00:22:38.529Z,70.20
2022-09-16T00:24:29.357Z,70.40
2022-09-16T00:26:19.951Z,70.30
2022-09-16T00:28:10.745Z,70.70
2022-09-16T00:30:01.414Z,70.20
2022-09-16T00:31:51.721Z,70.50
2022-09-16T00:33:42.502Z,70.40
2022-09-16T00:35:32.696Z,70.50
2022-09-16T00:37:24.392Z,70.70
2022-09-16T00:39:14.977Z,70.80
2022-09-16T00:41:06.009Z,71.00
2022-09-16T00:42:56.412Z,71.50
2022-09-16T00:44:56.403Z,70.70
2022-09-16T00:46:48.540Z,70.50
2022-09-16T00:48:39.809Z,70.70
2022-09-16T00:50:34.467Z,71.30
2022-09-16T00:52:26.443Z,71.90
2022-09-16T00:54:19.225Z,71.70
2022-09-16T00:56:12.852Z,72.50
2022-09-16T00:58:06.541Z,72.30
2022-09-16T00:59:57.703Z,72.70
2022-09-16T01:01:48.549Z,72.60
2022-09-16T01:03:42.477Z,72.80
2022-09-16T01:05:34.217Z,72.70
2022-09-16T01:07:31.362Z,72.80
2022-09-16T01:09:23.447Z,73.00
2022-09-16T01:11:13.792Z,73.50
2022-09-16T01:13:06.863Z,73.50
2022-09-16T01:14:57.846Z,73.80
2022-09-16T01:16:53.238Z,74.60
2022-09-16T01:18:50.164Z,76.60
2022-09-16T01:21:03.694Z,77.70
2022-09-16T01:23:18.268Z,78.70
2022-09-16T01:25:20.979Z,78.80
2022-09-16T01:27:30.301Z,79.80
2022-09-16T01:30:05.613Z,83.50
2022-09-16T01:32:02.586Z,86.80
2022-09-16T01:33:58.629Z,87.70
2022-09-16T01:35:58.048Z,88.60
2022-09-16T01:37:54.420Z,89.70
2022-09-16T01:39:48.330Z,89.80
2022-09-16T01:41:45.480Z,89.90
2022-09-16T01:43:43.406Z,89.00
2022-09-16T01:45:38.154Z,89.60
2022-09-16T01:47:36.244Z,89.90
2022-09-16T01:49:36.997Z,89.70
2022-09-16T01:51:30.729Z,89.90
2022-09-16T01:53:23.305Z,89.90
2022-09-16T01:55:17.325Z,89.90
2022-09-16T01:57:11.749Z,89.90
2022-09-16T01:59:05.238Z,89.50
2022-09-16T02:00:59.245Z,89.70
2022-09-16T02:02:54.206Z,89.90
2022-09-16T02:04:48.551Z,89.80
2022-09-16T02:06:39.784Z,89.90
2022-09-16T02:08:33.495Z,89.90
2022-09-16T02:10:27.974Z,89.60
2022-09-16T02:12:21.574Z,89.90
2022-09-16T02:14:15.633Z,89.90
2022-09-16T02:16:09.984Z,89.90
2022-09-16T02:18:05.583Z,89.90
2022-09-16T02:20:00.110Z,89.90
2022-09-16T02:21:51.754Z,89.90
2022-09-16T02:23:46.732Z,89.90
2022-09-16T02:25:39.319Z,89.90
2022-09-16T02:27:30.839Z,88.90
2022-09-16T02:29:23.457Z,89.80
2022-09-16T02:31:14.341Z,89.50
2022-09-16T02:33:07.757Z,89.50
2022-09-16T02:34:58.684Z,89.40
2022-09-16T02:36:53.351Z,89.10
2022-09-16T02:38:46.257Z,89.80
2022-09-16T02:40:42.173Z,89.20
2022-09-16T02:42:33.734Z,89.80
2022-09-16T02:44:25.495Z,89.00
2022-09-16T02:46:22.393Z,89.50
2022-09-16T02:48:18.794Z,88.90
2022-09-16T02:50:11.831Z,87.90
2022-09-16T02:52:09.570Z,89.20
2022-09-16T02:54:03.157Z,89.00
2022-09-16T02:55:55.378Z,88.50
2022-09-16T02:57:45.480Z,88.40
2022-09-16T02:59:36.080Z,88.00
2022-09-16T03:01:27.399Z,88.70
2022-09-16T03:03:19.076Z,86.90
2022-09-16T03:05:09.767Z,86.90
2022-09-16T03:07:00.596Z,88.00
2022-09-16T03:08:51.773Z,87.70
2022-09-16T03:10:43.895Z,88.70
2022-09-16T03:12:54.304Z,87.00
2022-09-16T03:15:28.600Z,89.30
2022-09-16T03:17:30.105Z,89.00
2022-09-16T03:19:26.939Z,89.20
2022-09-16T03:21:19.742Z,88.90
2022-09-16T03:23:17.190Z,88.30
2022-09-16T03:25:13.398Z,87.20
2022-09-16T03:27:08.724Z,88.90
2022-09-16T03:29:06.295Z,89.40
2022-09-16T03:31:01.825Z,89.50
2022-09-16T03:32:56.805Z,89.90
2022-09-16T03:34:52.637Z,89.90
2022-09-16T03:36:46.128Z,89.70
2022-09-16T03:38:37.922Z,89.60
2022-09-16T03:40:30.011Z,89.00
2022-09-16T03:42:21.112Z,89.60
2022-09-16T03:44:11.609Z,89.60
2022-09-16T03:46:02.265Z,89.90
2022-09-16T03:47:53.385Z,89.90
2022-09-16T03:49:43.809Z,89.90
2022-09-16T03:51:35.727Z,89.10
2022-09-16T03:53:26.190Z,89.70
2022-09-16T03:55:17.234Z,89.70
2022-09-16T03:57:07.753Z,89.90
2022-09-16T03:58:58.787Z,89.90
2022-09-16T04:00:49.634Z,89.90
2022-09-16T04:02:40.041Z,89.90
2022-09-16T04:04:30.832Z,89.90
2022-09-16T04:06:21.212Z,89.90
2022-09-16T04:08:13.451Z,89.90
2022-09-16T04:10:04.434Z,89.80
2022-09-16T04:11:54.903Z,89.90
2022-09-16T04:13:45.160Z,89.90
2022-09-16T04:15:36.882Z,89.90
2022-09-16T04:17:27.228Z,89.90
2022-09-16T04:19:18.616Z,89.90
2022-09-16T04:21:09.944Z,89.90
2022-09-16T04:23:00.520Z,89.90
2022-09-16T04:24:52.302Z,89.90
2022-09-16T04:26:43.151Z,89.90
2022-09-16T04:28:34.533Z,89.90
2022-09-16T04:30:25.013Z,89.90
2022-09-16T04:32:15.408Z,89.90
2022-09-16T04:34:06.150Z,89.90
2022-09-16T04:36:03.306Z,89.90
2022-09-16T04:37:53.499Z,89.90
2022-09-16T04:39:44.225Z,89.90
2022-09-16T04:41:35.953Z,89.90
2022-09-16T04:43:26.346Z,89.90
2022-09-16T04:45:16.882Z,89.90
2022-09-16T04:47:07.320Z,89.90
2022-09-16T04:48:58.763Z,89.90
2022-09-16T04:50:49.411Z,89.90
2022-09-16T04:52:40.256Z,89.90
2022-09-16T04:54:30.642Z,89.90
2022-09-16T04:56:23.056Z,89.90
2022-09-16T04:58:14.582Z,89.90
2022-09-16T05:00:05.661Z,89.90
2022-09-16T05:01:56.416Z,89.90
2022-09-16T05:03:48.029Z,89.90
2022-09-16T05:05:38.642Z,89.90
2022-09-16T05:07:29.115Z,89.90
2022-09-16T05:09:19.798Z,89.90
2022-09-16T05:11:11.595Z,89.90
2022-09-16T05:13:02.299Z,89.90
2022-09-16T05:14:53.979Z,89.90
2022-09-16T05:16:45.433Z,89.90
2022-09-16T05:18:36.759Z,89.90
2022-09-16T05:20:27.078Z,89.90
2022-09-16T05:22:17.508Z,89.90
2022-09-16T05:24:09.599Z,89.90
2022-09-16T05:26:02.365Z,89.90
2022-09-16T05:27:52.976Z,89.90
2022-09-16T05:29:43.740Z,89.90
2022-09-16T05:31:37.203Z,89.90
2022-09-16T05:33:27.591Z,89.90
2022-09-16T05:35:18.218Z,89.90
2022-09-16T05:37:08.596Z,89.90
2022-09-16T05:39:21.633Z,89.20
2022-09-16T05:41:10.911Z,89.90
2022-09-16T05:43:01.511Z,89.40
2022-09-16T05:44:52.057Z,87.90
2022-09-16T05:46:43.923Z,88.50
2022-09-16T05:48:35.179Z,85.80
2022-09-16T05:50:25.933Z,86.50
2022-09-16T05:52:16.536Z,86.70
2022-09-16T05:54:07.445Z,86.20
2022-09-16T05:55:59.453Z,85.70
2022-09-16T05:57:49.897Z,86.00
2022-09-16T05:59:40.147Z,86.00
2022-09-16T06:01:32.161Z,86.10
2022-09-16T06:03:24.163Z,86.30
2022-09-16T06:05:15.037Z,85.70
2022-09-16T06:07:05.778Z,84.50
2022-09-16T06:08:58.290Z,84.10
2022-09-16T06:10:48.578Z,84.10
2022-09-16T06:12:39.058Z,83.70
2022-09-16T06:14:29.895Z,83.50
2022-09-16T06:16:20.560Z,83.30
2022-09-16T06:18:11.303Z,82.60
2022-09-16T06:20:03.612Z,82.80
2022-09-16T06:21:53.825Z,82.20
2022-09-16T06:23:44.719Z,83.20
2022-09-16T06:25:35.381Z,82.70
2022-09-16T06:27:26.085Z,82.80
2022-09-16T06:29:17.294Z,82.10
2022-09-16T06:31:10.467Z,83.90
2022-09-16T06:33:01.373Z,83.80
2022-09-16T06:34:52.048Z,83.80
2022-09-16T06:36:45.586Z,82.80
2022-09-16T06:38:36.511Z,82.90
2022-09-16T06:40:26.831Z,82.70
2022-09-16T06:42:17.486Z,83.00
2022-09-16T06:44:08.260Z,83.90
2022-09-16T06:45:59.549Z,83.30
2022-09-16T06:47:50.058Z,82.90
2022-09-16T06:49:40.552Z,82.90
2022-09-16T06:51:31.853Z,82.40
2022-09-16T06:53:23.950Z,82.40
2022-09-16T06:55:14.891Z,82.30
2022-09-16T06:57:11.413Z,83.10
2022-09-16T06:59:03.174Z,83.10
2022-09-16T07:00:53.822Z,83.30
2022-09-16T07:02:43.979Z,83.10
2022-09-16T07:04:35.918Z,81.40
2022-09-16T07:06:45.270Z,81.60
2022-09-16T07:08:41.739Z,81.40
2022-09-16T07:10:32.139Z,81.70
2022-09-16T07:12:23.034Z,80.80
2022-09-16T07:14:13.518Z,80.70
2022-09-16T07:16:13.444Z,80.60
2022-09-16T07:18:04.528Z,79.80
2022-09-16T07:19:55.350Z,79.70
2022-09-16T07:21:46.093Z,80.20
2022-09-16T07:23:38.535Z,79.20
2022-09-16T07:25:35.486Z,79.60
2022-09-16T07:27:26.421Z,78.90
2022-09-16T07:29:18.147Z,77.70
2022-09-16T07:31:11.410Z,78.80
2022-09-16T07:33:01.950Z,79.00
2022-09-16T07:34:52.438Z,80.00
2022-09-16T07:36:47.124Z,80.10
2022-09-16T07:38:38.134Z,81.20
2022-09-16T07:40:30.400Z,82.20
2022-09-16T07:42:21.052Z,82.70
2022-09-16T07:44:13.254Z,83.70
2022-09-16T07:46:03.750Z,83.80
2022-09-16T07:47:54.104Z,83.30
2022-09-16T07:49:45.017Z,82.60
2022-09-16T07:51:36.391Z,84.50
2022-09-16T07:53:29.586Z,84.90
2022-09-16T07:55:20.358Z,83.80
2022-09-16T07:57:12.535Z,82.90
2022-09-16T07:59:04.643Z,83.90
2022-09-16T08:00:55.355Z,84.30
2022-09-16T08:02:45.850Z,84.30
2022-09-16T08:04:36.874Z,82.00
2022-09-16T08:06:29.410Z,83.70
2022-09-16T08:08:19.893Z,82.30
2022-09-16T08:10:10.767Z,82.90
2022-09-16T08:12:03.997Z,81.60
2022-09-16T08:13:58.494Z,82.30
2022-09-16T08:15:49.148Z,81.40
2022-09-16T08:17:39.749Z,81.20
2022-09-16T08:19:30.305Z,81.90
2022-09-16T08:21:21.823Z,82.00
2022-09-16T08:23:12.909Z,80.60
2022-09-16T08:25:03.720Z,81.80
2022-09-16T08:26:54.346Z,83.30
2022-09-16T08:29:07.287Z,83.60
2022-09-16T08:30:58.937Z,82.80
2022-09-16T08:32:55.758Z,84.50
2022-09-16T08:34:46.201Z,84.60
2022-09-16T08:36:37.438Z,84.50
2022-09-16T08:38:28.743Z,84.60
2022-09-16T08:42:35.187Z,83.50
2022-09-16T08:44:32.529Z,84.50
2022-09-16T08:46:29.579Z,83.20
2022-09-16T08:48:29.127Z,84.00
2022-09-16T08:50:23.242Z,83.70
2022-09-16T08:52:18.469Z,83.30
2022-09-16T08:54:11.608Z,82.70
2022-09-16T08:56:04.066Z,83.10
2022-09-16T08:57:57.765Z,82.50
2022-09-16T08:59:53.026Z,82.40
2022-09-16T09:01:49.541Z,82.50
2022-09-16T09:03:42.116Z,84.00
2022-09-16T09:05:36.565Z,83.30
2022-09-16T09:07:33.139Z,82.30
2022-09-16T09:09:36.410Z,83.00
2022-09-16T09:11:34.673Z,83.60
2022-09-16T09:13:57.568Z,83.00
2022-09-16T09:15:53.716Z,83.80
2022-09-16T09:17:54.047Z,83.00
2022-09-16T09:19:58.003Z,84.00
2022-09-16T09:21:54.160Z,83.90
2022-09-16T09:23:57.973Z,83.20
2022-09-16T09:25:55.486Z,84.00
2022-09-16T09:27:54.916Z,82.40
2022-09-16T09:30:02.041Z,82.90
2022-09-16T09:31:58.024Z,84.10
2022-09-16T09:33:56.633Z,82.90
2022-09-16T09:36:02.251Z,84.30
2022-09-16T09:38:14.336Z,84.30
2022-09-16T09:40:11.422Z,84.40
2022-09-16T09:42:13.022Z,84.70
2022-09-16T09:44:33.079Z,85.10
2022-09-16T09:46:26.092Z,85.70
2022-09-16T09:48:20.061Z,86.20
2022-09-16T09:50:16.641Z,87.00
2022-09-16T09:52:12.361Z,86.70
2022-09-16T09:54:06.182Z,86.60
2022-09-16T09:56:01.263Z,87.70
2022-09-16T09:58:01.550Z,87.90
2022-09-16T09:59:58.632Z,87.80
2022-09-16T10:01:54.191Z,87.60
2022-09-16T10:03:44.840Z,88.00
2022-09-16T10:05:36.832Z,87.60
2022-09-16T10:07:27.710Z,87.40
2022-09-16T10:09:19.382Z,86.20
2022-09-16T10:11:16.989Z,87.00
2022-09-16T10:13:08.529Z,86.80
2022-09-16T10:14:59.838Z,86.30
2022-09-16T10:16:51.732Z,84.60
2022-09-16T10:18:43.959Z,84.30
2022-09-16T10:20:38.003Z,83.40
2022-09-16T10:22:29.711Z,83.50
2022-09-16T10:24:32.108Z,83.80
2022-09-16T10:26:23.229Z,83.60
2022-09-16T10:28:21.659Z,83.20
2022-09-16T10:30:15.258Z,83.60
2022-09-16T10:32:06.842Z,84.70
2022-09-16T10:33:57.257Z,83.30
2022-09-16T10:35:54.764Z,84.30
2022-09-16T10:37:49.869Z,84.50
2022-09-16T10:39:42.671Z,84.20
2022-09-16T10:41:35.002Z,84.30
2022-09-16T10:43:26.733Z,84.80
2022-09-16T10:45:25.587Z,84.70
2022-09-16T10:47:19.974Z,82.90
2022-09-16T10:49:12.590Z,82.80
2022-09-16T10:51:05.952Z,83.00
2022-09-16T10:52:56.480Z,83.70
2022-09-16T10:54:47.592Z,82.90
2022-09-16T10:56:48.421Z,82.60
2022-09-16T10:58:38.818Z,81.10
2022-09-16T11:00:32.439Z,79.90
2022-09-16T11:02:35.598Z,79.30
2022-09-16T11:04:37.156Z,77.70
2022-09-16T11:06:48.021Z,77.30
2022-09-16T11:08:49.979Z,77.10
2022-09-16T11:10:44.597Z,75.20
2022-09-16T11:13:07.913Z,74.50
2022-09-16T11:15:06.208Z,74.70
2022-09-16T11:17:09.540Z,76.80
2022-09-16T11:19:06.670Z,74.40
2022-09-16T11:21:14.645Z,74.40
2022-09-16T11:23:11.543Z,74.60
2022-09-16T11:25:24.734Z,73.50
2022-09-16T11:27:21.514Z,73.10
2022-09-16T11:29:36.585Z,71.30
2022-09-16T11:31:40.984Z,72.80
2022-09-16T11:33:36.271Z,71.90
2022-09-16T11:35:47.474Z,71.70
2022-09-16T11:37:42.820Z,71.70
2022-09-16T11:39:46.342Z,72.90
2022-09-16T11:41:41.087Z,74.80
2022-09-16T11:44:13.998Z,75.10
2022-09-16T11:46:09.473Z,77.10
2022-09-16T11:48:22.138Z,76.50
2022-09-16T11:50:22.828Z,76.40
2022-09-16T11:52:27.420Z,78.50
2022-09-16T11:54:37.867Z,77.40
2022-09-16T11:56:35.355Z,75.70
2022-09-16T11:58:35.426Z,75.90
2022-09-16T12:00:26.298Z,75.60
2022-09-16T12:02:22.451Z,75.00
2022-09-16T12:04:18.435Z,74.60
2022-09-16T12:06:11.362Z,75.40
2022-09-16T12:08:08.066Z,72.60
2022-09-16T12:10:04.201Z,72.60
2022-09-16T12:12:04.242Z,73.70
2022-09-16T12:14:05.499Z,72.70
2022-09-16T12:15:57.826Z,71.50
2022-09-16T12:17:53.240Z,73.30
2022-09-16T12:19:49.090Z,69.70
2022-09-16T12:21:45.157Z,69.40
2022-09-16T12:23:39.347Z,67.90
2022-09-16T12:25:35.353Z,68.20
2022-09-16T12:27:35.747Z,65.90
2022-09-16T12:29:30.830Z,64.20
2022-09-16T12:31:27.154Z,64.50
2022-09-16T12:33:20.858Z,65.00
2022-09-16T12:35:14.083Z,65.10
2022-09-16T12:37:23.438Z,66.40
2022-09-16T12:39:14.117Z,67.30
2022-09-16T12:41:16.910Z,67.50
2022-09-16T12:43:44.603Z,73.10
2022-09-16T12:46:05.540Z,72.50
2022-09-16T12:48:04.251Z,74.20
2022-09-16T12:50:13.192Z,78.20
2022-09-16T12:52:21.823Z,79.00
2022-09-16T12:54:32.103Z,79.70
2022-09-16T12:56:42.089Z,81.80
2022-09-16T12:59:05.080Z,80.90
2022-09-16T13:00:57.018Z,80.60
2022-09-16T13:02:50.625Z,81.60
2022-09-16T13:04:43.723Z,81.30
2022-09-16T13:06:36.915Z,81.70
2022-09-16T13:08:30.237Z,81.50
2022-09-16T13:10:40.388Z,81.70
2022-09-16T13:12:43.681Z,81.60
2022-09-16T13:14:43.885Z,82.50
2022-09-16T13:16:36.251Z,83.20
2022-09-16T13:18:38.079Z,83.40
2022-09-16T13:20:31.991Z,83.00
2022-09-16T13:22:26.421Z,82.50
2022-09-16T13:24:22.948Z,84.00
2022-09-16T13:26:13.855Z,84.00
2022-09-16T13:28:34.757Z,82.90
2022-09-16T13:30:35.746Z,82.40
2022-09-16T13:32:28.137Z,83.50
2022-09-16T13:34:18.701Z,84.80
2022-09-16T13:36:17.772Z,85.80
2022-09-16T13:38:22.221Z,85.30
2022-09-16T13:40:20.163Z,85.30
2022-09-16T13:42:17.715Z,86.70
2022-09-16T13:44:30.844Z,85.70
2022-09-16T13:46:30.276Z,86.70
2022-09-16T13:48:23.873Z,85.40
2022-09-16T13:50:16.389Z,85.50
2022-09-16T13:52:10.679Z,84.40
2022-09-16T13:54:01.623Z,85.90
2022-09-16T13:55:53.784Z,84.80
2022-09-16T13:57:55.850Z,85.20
2022-09-16T14:00:02.084Z,85.30
2022-09-16T14:02:02.055Z,86.20
2022-09-16T14:03:58.207Z,84.60
2022-09-16T14:06:07.575Z,85.80
2022-09-16T14:08:03.341Z,85.80
2022-09-16T14:09:59.718Z,84.80
2022-09-16T14:11:56.514Z,84.60
2022-09-16T14:13:51.719Z,84.70
2022-09-16T14:15:46.848Z,83.40
2022-09-16T14:17:39.966Z,83.00
2022-09-16T14:19:34.019Z,82.10
2022-09-16T14:21:24.992Z,82.80
2022-09-16T14:23:17.889Z,82.60
2022-09-16T14:25:29.465Z,83.00
2022-09-16T14:27:21.727Z,82.20
2022-09-16T14:29:12.124Z,83.20
2022-09-16T14:31:08.815Z,80.20
2022-09-16T14:33:01.769Z,78.50
2022-09-16T14:34:52.832Z,78.90
2022-09-16T14:36:46.123Z,78.00
2022-09-16T14:38:46.803Z,78.90
2022-09-16T14:40:39.823Z,77.70
2022-09-16T14:42:30.236Z,76.60
2022-09-16T14:44:23.669Z,77.30
2022-09-16T14:46:15.609Z,76.70
2022-09-16T14:48:08.903Z,76.20
2022-09-16T14:50:04.326Z,75.20
2022-09-16T14:51:57.107Z,76.60
2022-09-16T14:54:11.250Z,75.90
2022-09-16T14:56:03.862Z,78.00
2022-09-16T14:57:54.557Z,76.40
2022-09-16T14:59:45.238Z,75.70
2022-09-16T15:01:37.673Z,76.10
2022-09-16T15:03:30.693Z,76.20
2022-09-16T15:05:28.072Z,73.80
2022-09-16T15:07:24.770Z,72.90
2022-09-16T15:09:19.381Z,72.90
2022-09-16T15:13:13.211Z,73.80
2022-09-16T15:15:10.813Z,73.60
2022-09-16T15:17:07.857Z,71.80
2022-09-16T15:19:04.581Z,72.20
2022-09-16T15:21:09.296Z,72.10
2022-09-16T15:23:01.916Z,73.00
2022-09-16T15:24:55.325Z,72.10
2022-09-16T15:26:46.705Z,70.60
2022-09-16T15:28:37.484Z,70.50
2022-09-16T15:30:28.191Z,70.60
2022-09-16T15:32:22.115Z,70.50
2022-09-16T15:34:20.769Z,69.50
2022-09-16T15:36:36.917Z,70.20
2022-09-16T15:38:28.122Z,69.90
2022-09-16T15:40:22.404Z,68.10
2022-09-16T15:42:14.354Z,68.00
2022-09-16T15:44:08.774Z,67.30
2022-09-16T15:46:01.301Z,67.80
2022-09-16T15:47:54.747Z,67.80
2022-09-16T15:49:45.168Z,67.70
2022-09-16T15:51:38.669Z,66.60
2022-09-16T15:53:41.409Z,67.00
2022-09-16T15:55:36.218Z,67.50
2022-09-16T15:57:30.454Z,67.90
2022-09-16T15:59:25.791Z,68.10
2022-09-16T16:01:18.249Z,64.30
2022-09-16T16:03:17.715Z,64.50
2022-09-16T16:05:10.605Z,63.00
2022-09-16T16:07:03.257Z,62.40
2022-09-16T16:08:53.564Z,62.80
2022-09-16T16:11:07.566Z,62.00
2022-09-16T16:12:59.665Z,60.80
2022-09-16T16:14:50.367Z,60.70
2022-09-16T16:17:01.597Z,61.00
2022-09-16T16:18:52.660Z,62.50
2022-09-16T16:20:43.463Z,62.60
2022-09-16T16:22:34.385Z,63.60
2022-09-16T16:24:25.357Z,63.60
2022-09-16T16:26:16.126Z,65.10
2022-09-16T16:28:06.363Z,64.50
2022-09-16T16:29:56.988Z,64.90
2022-09-16T16:32:05.203Z,71.80
2022-09-16T16:33:57.324Z,75.60
2022-09-16T16:35:48.104Z,78.70
2022-09-16T16:37:47.635Z,79.80
2022-09-16T16:39:38.534Z,80.80
2022-09-16T16:41:28.864Z,83.40
2022-09-16T16:43:19.763Z,82.00
2022-09-16T16:45:11.504Z,82.80
2022-09-16T16:47:02.504Z,83.40
2022-09-16T16:48:52.935Z,82.30
2022-09-16T16:50:44.641Z,82.10
2022-09-16T16:52:35.560Z,80.70
2022-09-16T16:54:27.284Z,81.20
2022-09-16T16:56:17.945Z,80.40
2022-09-16T16:58:08.355Z,81.20
2022-09-16T16:59:58.705Z,79.00
2022-09-16T17:01:52.231Z,78.90
2022-09-16T17:03:44.084Z,79.80
2022-09-16T17:05:34.673Z,79.40
2022-09-16T17:07:27.738Z,76.80
2022-09-16T17:09:18.806Z,78.80
2022-09-16T17:11:10.274Z,78.10
2022-09-16T17:13:01.139Z,77.80
2022-09-16T17:14:51.697Z,76.80
2022-09-16T17:16:42.297Z,78.00
2022-09-16T17:18:34.399Z,76.10
2022-09-16T17:20:24.719Z,76.40
2022-09-16T17:22:15.259Z,75.00
2022-09-16T17:24:07.236Z,74.90
2022-09-16T17:25:57.946Z,75.90
2022-09-16T17:27:48.672Z,75.20
2022-09-16T17:29:39.065Z,75.40
2022-09-16T17:31:31.361Z,75.30
2022-09-16T17:33:21.930Z,74.50
2022-09-16T17:35:12.436Z,74.20
2022-09-16T17:37:02.924Z,75.30
2022-09-16T17:38:56.635Z,73.30
2022-09-16T17:40:48.787Z,74.30
2022-09-16T17:42:39.387Z,74.30
2022-09-16T17:44:30.104Z,71.70
2022-09-16T17:46:20.772Z,71.60
2022-09-16T17:48:11.578Z,71.70
2022-09-16T17:50:02.190Z,71.20
2022-09-16T17:51:52.931Z,72.50
2022-09-16T17:53:43.983Z,71.50
2022-09-16T17:55:34.546Z,71.00
2022-09-16T17:57:29.995Z,69.10
2022-09-16T17:59:23.331Z,69.30
2022-09-16T18:01:15.934Z,69.00
2022-09-16T18:03:06.178Z,68.50
2022-09-16T18:04:56.920Z,68.90
2022-09-16T18:06:47.348Z,69.30
2022-09-16T18:08:38.043Z,69.10
2022-09-16T18:10:28.459Z,69.90
2022-09-16T18:12:19.098Z,69.70
2022-09-16T18:14:12.978Z,70.40
2022-09-16T18:16:04.698Z,71.10
2022-09-16T18:17:55.250Z,71.20
2022-09-16T18:19:45.820Z,71.50
2022-09-16T18:21:36.246Z,71.20
2022-09-16T18:23:26.344Z,71.70
2022-09-16T18:25:16.753Z,71.60
2022-09-16T18:27:07.179Z,72.00
2022-09-16T18:29:17.906Z,71.70
2022-09-16T18:31:11.086Z,71.90
2022-09-16T18:33:01.881Z,72.20
2022-09-16T18:34:52.114Z,72.10
2022-09-16T18:36:42.778Z,72.10
2022-09-16T18:38:33.999Z,72.10
2022-09-16T18:40:24.591Z,72.20
2022-09-16T18:42:15.633Z,71.20
2022-09-16T18:44:10.344Z,71.60
2022-09-16T18:46:13.820Z,71.30
2022-09-16T18:48:04.414Z,71.40
2022-09-16T18:49:54.935Z,71.70
2022-09-16T18:51:50.969Z,72.70
2022-09-16T18:53:42.452Z,74.80
2022-09-16T18:55:32.926Z,78.30
2022-09-16T18:57:23.268Z,77.40
2022-09-16T18:59:23.665Z,79.70
2022-09-16T19:01:27.018Z,81.20
2022-09-16T19:03:18.078Z,82.10
2022-09-16T19:05:08.607Z,82.50
2022-09-16T19:07:02.164Z,82.30
2022-09-16T19:08:52.583Z,81.50
2022-09-16T19:10:42.974Z,83.60
2022-09-16T19:12:38.427Z,82.70
2022-09-16T19:14:29.601Z,83.60
2022-09-16T19:16:21.807Z,84.40
2022-09-16T19:18:12.727Z,84.60
2022-09-16T19:20:03.720Z,84.40
2022-09-16T19:21:54.203Z,85.30
2022-09-16T19:23:45.915Z,84.10
2022-09-16T19:25:36.595Z,83.80
2022-09-16T19:27:26.871Z,84.40
2022-09-16T19:29:17.474Z,83.10
2022-09-16T19:31:09.839Z,82.50
2022-09-16T19:33:01.627Z,82.50
2022-09-16T19:34:52.396Z,82.20
2022-09-16T19:36:43.297Z,82.90
2022-09-16T19:38:35.330Z,82.10
2022-09-16T19:40:26.143Z,83.10
2022-09-16T19:42:16.406Z,82.00
2022-09-16T19:44:09.497Z,82.00
2022-09-16T19:46:04.752Z,81.70
2022-09-16T19:47:55.449Z,80.70
2022-09-16T19:49:47.208Z,80.50
2022-09-16T19:51:37.890Z,80.20
2022-09-16T19:53:28.511Z,79.50
2022-09-16T19:55:19.402Z,79.00
2022-09-16T19:57:09.980Z,79.60
2022-09-16T19:59:00.670Z,79.60
2022-09-16T20:00:56.191Z,78.40
2022-09-16T20:02:47.020Z,78.70
2022-09-16T20:04:37.591Z,78.30
2022-09-16T20:06:30.872Z,79.40
2022-09-16T20:08:21.390Z,78.20
2022-09-16T20:10:11.991Z,77.50
2022-09-16T20:12:02.856Z,75.40
2022-09-16T20:13:54.325Z,76.60
2022-09-16T20:15:44.912Z,77.80
2022-09-16T20:17:35.335Z,79.40
2022-09-16T20:19:26.416Z,81.00
2022-09-16T20:21:19.398Z,81.90
2022-09-16T20:23:11.732Z,82.30
2022-09-16T20:25:21.817Z,83.30
2022-09-16T20:27:13.128Z,83.50
2022-09-16T20:29:04.303Z,84.30
2022-09-16T20:30:54.881Z,84.20
2022-09-16T20:32:45.333Z,83.50
2022-09-16T20:34:36.020Z,83.90
2022-09-16T20:36:28.758Z,82.90
2022-09-16T20:38:21.087Z,83.40
2022-09-16T20:40:11.969Z,83.20
2022-09-16T20:42:02.500Z,83.40
2022-09-16T20:43:53.420Z,83.80
2022-09-16T20:45:44.150Z,82.90
2022-09-16T20:47:34.864Z,84.10
2022-09-16T20:49:25.579Z,83.40
2022-09-16T20:51:18.136Z,83.70
2022-09-16T20:53:09.518Z,83.60
2022-09-16T20:55:01.306Z,84.00
2022-09-16T20:56:51.930Z,83.10
2022-09-16T20:58:43.298Z,81.70
2022-09-16T21:00:33.771Z,81.80
2022-09-16T21:02:24.583Z,81.50
2022-09-16T21:04:16.428Z,82.30
2022-09-16T21:06:08.998Z,82.30
2022-09-16T21:07:59.644Z,81.90
2022-09-16T21:09:50.207Z,81.80
2022-09-16T21:11:42.217Z,81.70
2022-09-16T21:13:33.124Z,82.00
2022-09-16T21:15:23.871Z,81.60
2022-09-16T21:17:14.557Z,81.70
2022-09-16T21:19:06.188Z,82.40
2022-09-16T21:21:01.679Z,80.70
2022-09-16T21:22:51.996Z,81.00
2022-09-16T21:24:42.419Z,80.50
2022-09-16T21:26:34.574Z,80.10
2022-09-16T21:28:26.420Z,80.50
2022-09-16T21:30:17.057Z,80.60
2022-09-16T21:32:07.482Z,80.80
2022-09-16T21:33:58.356Z,80.90
2022-09-16T21:35:52.216Z,80.00
2022-09-16T21:37:42.769Z,80.40
2022-09-16T21:39:33.618Z,80.40
2022-09-16T21:41:25.119Z,80.70
2022-09-16T21:43:15.877Z,80.60
2022-09-16T21:45:08.607Z,80.40
2022-09-16T21:46:59.514Z,81.20
2022-09-16T21:48:51.033Z,81.10
2022-09-16T21:50:41.870Z,80.70
2022-09-16T21:52:32.553Z,81.00
2022-09-16T21:54:23.447Z,80.80
2022-09-16T21:56:15.654Z,80.40
2022-09-16T21:58:06.367Z,80.50
2022-09-16T21:59:56.767Z,79.80
2022-09-16T22:01:49.140Z,80.30
2022-09-16T22:03:41.042Z,79.40
2022-09-16T22:05:31.801Z,79.10
2022-09-16T22:07:22.350Z,79.40
2022-09-16T22:09:12.850Z,79.30
2022-09-16T22:11:04.391Z,78.70
2022-09-16T22:12:55.165Z,78.90
2022-09-16T22:14:45.832Z,80.20
2022-09-16T22:16:37.199Z,79.50
2022-09-16T22:18:30.310Z,80.40
2022-09-16T22:20:21.956Z,80.70
2022-09-16T22:22:12.635Z,81.00
2022-09-16T22:24:04.515Z,81.50
2022-09-16T22:25:58.872Z,80.50
2022-09-16T22:27:52.322Z,81.10
2022-09-16T22:29:43.048Z,79.80
2022-09-16T22:31:34.212Z,79.10
2022-09-16T22:33:28.951Z,78.40
2022-09-16T22:35:19.656Z,78.50
2022-09-16T22:37:16.276Z,78.10
2022-09-16T22:39:10.881Z,79.20
2022-09-16T22:41:02.083Z,80.10
2022-09-16T22:42:52.540Z,80.30
2022-09-16T22:44:43.094Z,80.80
2022-09-16T22:46:34.850Z,81.60
2022-09-16T22:48:25.531Z,82.00
2022-09-16T22:50:17.993Z,83.00
2022-09-16T22:52:08.311Z,83.30
2022-09-16T22:53:59.047Z,83.50
2022-09-16T22:55:54.528Z,83.70
2022-09-16T22:57:45.085Z,84.80
2022-09-16T22:59:35.633Z,85.40
2022-09-16T23:01:27.579Z,84.40
2022-09-16T23:03:18.135Z,84.80
2022-09-16T23:05:09.382Z,85.50
2022-09-16T23:07:01.191Z,86.30
2022-09-16T23:08:52.367Z,86.40
2022-09-16T23:10:42.689Z,86.40
2022-09-16T23:12:35.362Z,86.40
2022-09-16T23:14:25.986Z,85.70
2022-09-16T23:16:18.428Z,85.20
2022-09-16T23:18:09.463Z,83.40
2022-09-16T23:20:00.203Z,83.10
2022-09-16T23:21:50.632Z,83.00
2022-09-16T23:23:44.177Z,83.20
2022-09-16T23:25:35.177Z,82.60
2022-09-16T23:27:25.665Z,81.90
2022-09-16T23:29:16.980Z,81.30
2022-09-16T23:31:09.395Z,81.00
2022-09-16T23:33:00.191Z,81.80
2022-09-16T23:34:50.792Z,82.00
2022-09-16T23:36:41.538Z,82.60
2022-09-16T23:38:33.478Z,82.20
2022-09-16T23:40:25.542Z,81.50
2022-09-16T23:42:16.075Z,80.90
2022-09-16T23:44:06.658Z,80.30
2022-09-16T23:45:57.425Z,81.50
2022-09-16T23:47:47.789Z,80.80
2022-09-16T23:49:38.359Z,81.60
2022-09-16T23:51:29.860Z,81.00
2022-09-16T23:53:20.308Z,81.60
2022-09-16T23:55:10.569Z,83.10
2022-09-16T23:57:02.322Z,83.40
2022-09-16T23:58:53.006Z,83.10
